createdAt,value
2022-11-05T00:00:56.110Z,1005.69
2022-11-05T00:01:56.201Z,1005.67
2022-11-05T00:02:56.105Z,1005.69
2022-11-05T00:03:56.204Z,1005.70
2022-11-05T00:04:56.107Z,1005.71
2022-11-05T00:05:56.115Z,1005.74
2022-11-05T00:06:56.103Z,1005.74
2022-11-05T00:07:56.102Z,1005.75
2022-11-05T00:08:56.103Z,1005.78
2022-11-05T00:09:56.097Z,1005.80
2022-11-05T00:10:56.099Z,1005.79
2022-11-05T00:11:56.098Z,1005.76
2022-11-05T00:12:56.101Z,1005.80
2022-11-05T00:13:56.118Z,1005.84
2022-11-05T00:14:56.093Z,1005.81
2022-11-05T00:15:56.096Z,1005.83
2022-11-05T00:16:56.092Z,1005.86
2022-11-05T00:17:56.094Z,1005.86
2022-11-05T00:18:56.091Z,1005.90
2022-11-05T00:19:56.091Z,1005.90
2022-11-05T00:20:56.091Z,1005.92
2022-11-05T00:21:56.092Z,1005.93
2022-11-05T00:22:56.091Z,1005.90
2022-11-05T00:23:56.088Z,1005.97
2022-11-05T00:24:56.083Z,1005.93
2022-11-05T00:25:56.087Z,1005.96
2022-11-05T00:26:56.086Z,1005.97
2022-11-05T00:27:56.085Z,1005.96
2022-11-05T00:28:56.084Z,1006.00
2022-11-05T00:29:56.106Z,1005.98
2022-11-05T00:30:56.082Z,1006.00
2022-11-05T00:31:56.084Z,1006.02
2022-11-05T00:32:56.077Z,1005.98
2022-11-05T00:33:56.078Z,1006.02
2022-11-05T00:34:56.076Z,1006.01
2022-11-05T00:35:56.083Z,1006.04
2022-11-05T00:36:56.081Z,1006.02
2022-11-05T00:37:56.079Z,1006.04
2022-11-05T00:38:56.076Z,1006.09
2022-11-05T00:39:56.088Z,1006.09
2022-11-05T00:40:56.074Z,1006.07
2022-11-05T00:41:56.074Z,1006.10
2022-11-05T00:42:56.068Z,1006.11
2022-11-05T00:43:56.072Z,1006.11
2022-11-05T00:44:56.069Z,1006.14
2022-11-05T00:45:56.094Z,1006.15
2022-11-05T00:46:59.878Z,1006.12
2022-11-05T00:47:56.075Z,1006.13
2022-11-05T00:48:56.066Z,1006.11
2022-11-05T00:49:56.065Z,1006.12
2022-11-05T00:50:56.066Z,1006.11
2022-11-05T00:51:56.062Z,1006.14
2022-11-05T00:52:56.063Z,1006.13
2022-11-05T00:53:56.069Z,1006.15
2022-11-05T00:54:56.064Z,1006.15
2022-11-05T00:55:56.057Z,1006.14
2022-11-05T00:56:59.368Z,1006.13
2022-11-05T00:57:56.056Z,1006.13
2022-11-05T00:58:56.060Z,1006.18
2022-11-05T00:59:56.057Z,1006.18
2022-11-05T01:00:56.060Z,1006.24
2022-11-05T01:01:56.228Z,1006.25
2022-11-05T01:02:56.108Z,1006.23
2022-11-05T01:03:56.054Z,1006.24
2022-11-05T01:04:56.049Z,1006.27
2022-11-05T01:05:56.053Z,1006.27
2022-11-05T01:06:56.053Z,1006.29
2022-11-05T01:07:56.053Z,1006.27
2022-11-05T01:08:56.053Z,1006.25
2022-11-05T01:09:56.048Z,1006.28
2022-11-05T01:10:56.044Z,1006.29
2022-11-05T01:11:56.041Z,1006.29
2022-11-05T01:12:56.044Z,1006.30
2022-11-05T01:13:56.045Z,1006.32
2022-11-05T01:14:56.044Z,1006.32
2022-11-05T01:15:56.043Z,1006.34
2022-11-05T01:16:57.247Z,1006.38
2022-11-05T01:17:56.062Z,1006.34
2022-11-05T01:18:56.042Z,1006.40
2022-11-05T01:19:56.037Z,1006.39
2022-11-05T01:20:56.035Z,1006.36
2022-11-05T01:21:56.037Z,1006.38
2022-11-05T01:22:56.035Z,1006.41
2022-11-05T01:23:56.039Z,1006.42
2022-11-05T01:24:56.029Z,1006.40
2022-11-05T01:25:56.033Z,1006.39
2022-11-05T01:26:56.030Z,1006.42
2022-11-05T01:27:56.046Z,1006.42
2022-11-05T01:28:56.096Z,1006.43
2022-11-05T01:29:56.034Z,1006.45
2022-11-05T01:30:56.030Z,1006.44
2022-11-05T01:31:56.026Z,1006.42
2022-11-05T01:32:56.029Z,1006.45
2022-11-05T01:33:56.056Z,1006.42
2022-11-05T01:34:56.024Z,1006.45
2022-11-05T01:35:56.023Z,1006.45
2022-11-05T01:36:56.029Z,1006.48
2022-11-05T01:37:56.020Z,1006.46
2022-11-05T01:38:56.023Z,1006.50
2022-11-05T01:39:56.017Z,1006.53
2022-11-05T01:40:56.024Z,1006.51
2022-11-05T01:41:56.017Z,1006.51
2022-11-05T01:42:56.016Z,1006.57
2022-11-05T01:43:56.020Z,1006.58
2022-11-05T01:44:56.019Z,1006.58
2022-11-05T01:45:56.015Z,1006.61
2022-11-05T01:46:56.012Z,1006.58
2022-11-05T01:47:56.015Z,1006.57
2022-11-05T01:49:01.798Z,1006.55
2022-11-05T01:49:56.027Z,1006.55
2022-11-05T01:50:56.014Z,1006.58
2022-11-05T01:51:56.011Z,1006.54
2022-11-05T01:52:56.006Z,1006.55
2022-11-05T01:53:56.009Z,1006.54
2022-11-05T01:54:56.006Z,1006.55
2022-11-05T01:55:56.010Z,1006.60
2022-11-05T01:56:56.006Z,1006.58
2022-11-05T01:57:56.005Z,1006.61
2022-11-05T01:58:56.000Z,1006.62
2022-11-05T01:59:56.004Z,1006.63
2022-11-05T02:00:56.003Z,1006.67
2022-11-05T02:01:56.153Z,1006.65
2022-11-05T02:02:56.060Z,1006.66
2022-11-05T02:03:55.999Z,1006.63
2022-11-05T02:04:55.996Z,1006.67
2022-11-05T02:05:56.015Z,1006.72
2022-11-05T02:06:55.989Z,1006.68
2022-11-05T02:07:56.000Z,1006.73
2022-11-05T02:08:55.994Z,1006.71
2022-11-05T02:09:55.992Z,1006.73
2022-11-05T02:10:55.994Z,1006.73
2022-11-05T02:11:55.995Z,1006.74
2022-11-05T02:12:55.993Z,1006.73
2022-11-05T02:13:55.988Z,1006.75
2022-11-05T02:14:55.988Z,1006.76
2022-11-05T02:15:55.987Z,1006.81
2022-11-05T02:16:55.985Z,1006.81
2022-11-05T02:17:55.982Z,1006.81
2022-11-05T02:18:55.983Z,1006.84
2022-11-05T02:20:55.981Z,1006.87
2022-11-05T02:21:56.007Z,1006.90
2022-11-05T02:22:55.977Z,1006.91
2022-11-05T02:23:55.978Z,1006.93
2022-11-05T02:24:55.980Z,1006.95
2022-11-05T02:25:55.981Z,1006.91
2022-11-05T02:26:56.178Z,1006.94
2022-11-05T02:27:55.980Z,1006.96
2022-11-05T02:28:55.977Z,1006.94
2022-11-05T02:29:55.973Z,1007.00
2022-11-05T02:30:55.970Z,1006.99
2022-11-05T02:31:56.305Z,1006.99
2022-11-05T02:32:55.972Z,1007.00
2022-11-05T02:33:55.970Z,1006.99
2022-11-05T02:34:55.976Z,1006.98
2022-11-05T02:35:55.966Z,1007.01
2022-11-05T02:36:55.970Z,1007.02
2022-11-05T02:37:56.001Z,1007.02
2022-11-05T02:38:55.967Z,1007.08
2022-11-05T02:39:55.968Z,1007.08
2022-11-05T02:40:55.964Z,1007.12
2022-11-05T02:41:59.314Z,1007.13
2022-11-05T02:42:55.956Z,1007.14
2022-11-05T02:43:55.956Z,1007.18
2022-11-05T02:44:55.962Z,1007.17
2022-11-05T02:45:55.958Z,1007.17
2022-11-05T02:46:55.960Z,1007.20
2022-11-05T02:47:55.961Z,1007.22
2022-11-05T02:48:55.960Z,1007.21
2022-11-05T02:49:55.956Z,1007.22
2022-11-05T02:50:55.957Z,1007.20
2022-11-05T02:51:55.953Z,1007.23
2022-11-05T02:52:55.955Z,1007.23
2022-11-05T02:53:55.974Z,1007.18
2022-11-05T02:54:55.953Z,1007.19
2022-11-05T02:55:55.952Z,1007.23
2022-11-05T02:56:55.946Z,1007.21
2022-11-05T02:57:55.951Z,1007.22
2022-11-05T02:58:55.947Z,1007.26
2022-11-05T02:59:55.949Z,1007.26
2022-11-05T03:00:55.945Z,1007.31
2022-11-05T03:01:56.048Z,1007.34
2022-11-05T03:02:55.997Z,1007.33
2022-11-05T03:03:55.938Z,1007.34
2022-11-05T03:04:55.939Z,1007.33
2022-11-05T03:05:55.937Z,1007.34
2022-11-05T03:06:55.943Z,1007.37
2022-11-05T03:07:55.939Z,1007.38
2022-11-05T03:08:55.941Z,1007.39
2022-11-05T03:09:56.225Z,1007.44
2022-11-05T03:10:55.938Z,1007.44
2022-11-05T03:11:55.939Z,1007.44
2022-11-05T03:12:55.934Z,1007.45
2022-11-05T03:13:55.931Z,1007.48
2022-11-05T03:14:55.933Z,1007.53
2022-11-05T03:15:55.940Z,1007.51
2022-11-05T03:16:55.931Z,1007.56
2022-11-05T03:17:55.928Z,1007.55
2022-11-05T03:18:55.928Z,1007.60
2022-11-05T03:19:55.926Z,1007.62
2022-11-05T03:20:55.932Z,1007.62
2022-11-05T03:21:55.926Z,1007.65
2022-11-05T03:22:55.923Z,1007.66
2022-11-05T03:23:55.922Z,1007.69
2022-11-05T03:24:55.921Z,1007.69
2022-11-05T03:25:55.941Z,1007.61
2022-11-05T03:26:55.919Z,1007.70
2022-11-05T03:27:55.917Z,1007.74
2022-11-05T03:28:55.916Z,1007.74
2022-11-05T03:29:55.916Z,1007.75
2022-11-05T03:30:55.923Z,1007.75
2022-11-05T03:31:55.911Z,1007.76
2022-11-05T03:32:55.921Z,1007.76
2022-11-05T03:33:55.909Z,1007.80
2022-11-05T03:34:55.911Z,1007.77
2022-11-05T03:35:55.911Z,1007.79
2022-11-05T03:36:55.912Z,1007.82
2022-11-05T03:37:55.910Z,1007.81
2022-11-05T03:38:55.912Z,1007.78
2022-11-05T03:39:55.904Z,1007.80
2022-11-05T03:40:55.905Z,1007.81
2022-11-05T03:41:55.927Z,1007.79
2022-11-05T03:42:55.906Z,1007.86
2022-11-05T03:43:55.904Z,1007.80
2022-11-05T03:44:55.907Z,1007.81
2022-11-05T03:45:55.896Z,1007.84
2022-11-05T03:46:55.902Z,1007.85
2022-11-05T03:47:55.899Z,1007.84
2022-11-05T03:48:55.973Z,1007.87
2022-11-05T03:49:55.895Z,1007.89
2022-11-05T03:50:55.892Z,1007.89
2022-11-05T03:51:55.895Z,1007.89
2022-11-05T03:52:55.900Z,1007.91
2022-11-05T03:53:55.894Z,1007.90
2022-11-05T03:54:55.895Z,1007.92
2022-11-05T03:55:55.891Z,1007.90
2022-11-05T03:56:55.892Z,1007.88
2022-11-05T03:57:55.907Z,1007.93
2022-11-05T03:58:58.871Z,1007.91
2022-11-05T03:59:55.890Z,1007.91
2022-11-05T04:00:55.890Z,1007.98
2022-11-05T04:01:56.045Z,1008.00
2022-11-05T04:02:55.992Z,1007.96
2022-11-05T04:03:55.885Z,1008.06
2022-11-05T04:04:55.878Z,1008.00
2022-11-05T04:05:55.879Z,1008.06
2022-11-05T04:06:55.882Z,1008.03
2022-11-05T04:07:55.876Z,1008.07
2022-11-05T04:08:55.875Z,1008.09
2022-11-05T04:09:55.878Z,1008.07
2022-11-05T04:10:55.872Z,1008.16
2022-11-05T04:11:55.870Z,1008.12
2022-11-05T04:12:55.875Z,1008.11
2022-11-05T04:13:55.895Z,1008.16
2022-11-05T04:14:55.870Z,1008.17
2022-11-05T04:15:55.867Z,1008.19
2022-11-05T04:16:55.867Z,1008.15
2022-11-05T04:17:55.864Z,1008.18
2022-11-05T04:18:55.865Z,1008.20
2022-11-05T04:19:55.861Z,1008.21
2022-11-05T04:20:55.862Z,1008.23
2022-11-05T04:21:55.858Z,1008.22
2022-11-05T04:22:55.858Z,1008.22
2022-11-05T04:23:55.856Z,1008.25
2022-11-05T04:24:55.866Z,1008.25
2022-11-05T04:25:55.855Z,1008.25
2022-11-05T04:26:55.861Z,1008.28
2022-11-05T04:27:55.857Z,1008.26
2022-11-05T04:28:55.853Z,1008.26
2022-11-05T04:29:55.878Z,1008.28
2022-11-05T04:30:55.856Z,1008.31
2022-11-05T04:31:55.853Z,1008.30
2022-11-05T04:32:55.849Z,1008.30
2022-11-05T04:33:55.847Z,1008.30
2022-11-05T04:34:55.847Z,1008.28
2022-11-05T04:35:55.848Z,1008.34
2022-11-05T04:36:55.846Z,1008.32
2022-11-05T04:37:55.838Z,1008.32
2022-11-05T04:38:55.845Z,1008.39
2022-11-05T04:39:55.836Z,1008.40
2022-11-05T04:40:55.836Z,1008.34
2022-11-05T04:41:55.838Z,1008.37
2022-11-05T04:42:55.836Z,1008.34
2022-11-05T04:43:55.836Z,1008.35
2022-11-05T04:44:55.841Z,1008.35
2022-11-05T04:45:55.853Z,1008.39
2022-11-05T04:46:55.832Z,1008.39
2022-11-05T04:47:55.835Z,1008.41
2022-11-05T04:48:55.833Z,1008.40
2022-11-05T04:49:55.829Z,1008.45
2022-11-05T04:50:55.838Z,1008.40
2022-11-05T04:51:55.825Z,1008.45
2022-11-05T04:52:55.824Z,1008.44
2022-11-05T04:53:55.821Z,1008.51
2022-11-05T04:54:55.819Z,1008.50
2022-11-05T04:55:55.823Z,1008.52
2022-11-05T04:56:55.822Z,1008.56
2022-11-05T04:57:55.815Z,1008.54
2022-11-05T04:58:55.823Z,1008.52
2022-11-05T04:59:55.815Z,1008.52
2022-11-05T05:00:55.907Z,1008.54
2022-11-05T05:01:55.910Z,1008.52
2022-11-05T05:02:55.807Z,1008.52
2022-11-05T05:03:55.819Z,1008.52
2022-11-05T05:04:55.809Z,1008.53
2022-11-05T05:05:59.474Z,1008.53
2022-11-05T05:06:55.811Z,1008.50
2022-11-05T05:07:55.806Z,1008.47
2022-11-05T05:08:55.866Z,1008.49
2022-11-05T05:09:55.804Z,1008.50
2022-11-05T05:10:55.803Z,1008.52
2022-11-05T05:11:55.805Z,1008.49
2022-11-05T05:12:55.795Z,1008.54
2022-11-05T05:13:55.796Z,1008.51
2022-11-05T05:14:55.802Z,1008.53
2022-11-05T05:15:55.798Z,1008.54
2022-11-05T05:16:55.797Z,1008.52
2022-11-05T05:17:55.809Z,1008.51
2022-11-05T05:18:55.790Z,1008.49
2022-11-05T05:19:55.789Z,1008.47
2022-11-05T05:20:55.792Z,1008.52
2022-11-05T05:21:55.786Z,1008.53
2022-11-05T05:22:55.792Z,1008.51
2022-11-05T05:23:55.792Z,1008.55
2022-11-05T05:24:55.790Z,1008.56
2022-11-05T05:25:55.782Z,1008.57
2022-11-05T05:26:55.784Z,1008.62
2022-11-05T05:27:55.777Z,1008.60
2022-11-05T05:28:55.775Z,1008.65
2022-11-05T05:29:55.773Z,1008.66
2022-11-05T05:30:58.680Z,1008.61
2022-11-05T05:31:55.777Z,1008.60
2022-11-05T05:32:55.775Z,1008.63
2022-11-05T05:33:55.799Z,1008.68
2022-11-05T05:34:55.781Z,1008.72
2022-11-05T05:35:55.779Z,1008.69
2022-11-05T05:36:55.769Z,1008.72
2022-11-05T05:37:55.763Z,1008.74
2022-11-05T05:38:55.768Z,1008.74
2022-11-05T05:39:55.765Z,1008.75
2022-11-05T05:40:55.766Z,1008.79
2022-11-05T05:41:55.770Z,1008.78
2022-11-05T05:42:55.759Z,1008.81
2022-11-05T05:43:55.769Z,1008.83
2022-11-05T05:44:55.763Z,1008.88
2022-11-05T05:45:55.757Z,1008.86
2022-11-05T05:46:55.757Z,1008.91
2022-11-05T05:47:55.767Z,1008.93
2022-11-05T05:48:55.752Z,1008.96
2022-11-05T05:49:55.769Z,1008.97
2022-11-05T05:50:55.748Z,1008.98
2022-11-05T05:51:55.749Z,1009.04
2022-11-05T05:52:55.757Z,1009.10
2022-11-05T05:53:55.747Z,1009.07
2022-11-05T05:54:55.743Z,1009.06
2022-11-05T05:55:55.742Z,1009.10
2022-11-05T05:56:55.744Z,1009.03
2022-11-05T05:57:55.747Z,1009.08
2022-11-05T05:58:55.738Z,1009.11
2022-11-05T05:59:55.735Z,1009.12
2022-11-05T06:00:55.738Z,1009.10
2022-11-05T06:01:55.908Z,1009.13
2022-11-05T06:02:55.797Z,1009.20
2022-11-05T06:03:55.731Z,1009.23
2022-11-05T06:04:55.736Z,1009.26
2022-11-05T06:05:55.751Z,1009.27
2022-11-05T06:06:55.728Z,1009.34
2022-11-05T06:07:55.725Z,1009.37
2022-11-05T06:08:55.774Z,1009.39
2022-11-05T06:09:55.727Z,1009.38
2022-11-05T06:10:55.774Z,1009.37
2022-11-05T06:11:55.721Z,1009.36
2022-11-05T06:12:55.723Z,1009.40
2022-11-05T06:13:55.724Z,1009.37
2022-11-05T06:14:55.719Z,1009.41
2022-11-05T06:15:55.717Z,1009.46
2022-11-05T06:16:55.712Z,1009.45
2022-11-05T06:17:55.714Z,1009.48
2022-11-05T06:18:55.713Z,1009.50
2022-11-05T06:19:55.712Z,1009.49
2022-11-05T06:20:55.711Z,1009.48
2022-11-05T06:21:55.729Z,1009.50
2022-11-05T06:22:55.708Z,1009.52
2022-11-05T06:23:55.705Z,1009.52
2022-11-05T06:24:55.702Z,1009.56
2022-11-05T06:25:55.701Z,1009.55
2022-11-05T06:26:55.700Z,1009.59
2022-11-05T06:27:55.699Z,1009.58
2022-11-05T06:28:55.704Z,1009.59
2022-11-05T06:29:55.697Z,1009.58
2022-11-05T06:30:55.694Z,1009.63
2022-11-05T06:31:55.692Z,1009.63
2022-11-05T06:32:55.688Z,1009.64
2022-11-05T06:33:55.689Z,1009.64
2022-11-05T06:34:55.688Z,1009.67
2022-11-05T06:35:55.686Z,1009.71
2022-11-05T06:36:55.688Z,1009.75
2022-11-05T06:37:55.705Z,1009.79
2022-11-05T06:38:55.686Z,1009.76
2022-11-05T06:39:55.686Z,1009.84
2022-11-05T06:40:55.679Z,1009.88
2022-11-05T06:42:55.679Z,1009.94
2022-11-05T06:43:55.677Z,1009.87
2022-11-05T06:44:55.675Z,1009.95
2022-11-05T06:45:55.676Z,1009.96
2022-11-05T06:46:55.672Z,1009.95
2022-11-05T06:47:55.676Z,1010.01
2022-11-05T06:48:55.669Z,1010.05
2022-11-05T06:49:55.665Z,1010.06
2022-11-05T06:50:55.668Z,1010.03
2022-11-05T06:51:55.662Z,1010.04
2022-11-05T06:52:55.663Z,1010.01
2022-11-05T06:53:55.779Z,1010.05
2022-11-05T06:54:55.661Z,1010.07
2022-11-05T06:55:55.659Z,1010.09
2022-11-05T06:56:55.668Z,1010.09
2022-11-05T06:57:55.657Z,1010.13
2022-11-05T06:58:55.657Z,1010.09
2022-11-05T07:00:00.634Z,1010.13
2022-11-05T07:00:55.729Z,1010.17
2022-11-05T07:01:55.684Z,1010.19
2022-11-05T07:02:55.653Z,1010.20
2022-11-05T07:03:55.650Z,1010.23
2022-11-05T07:04:55.650Z,1010.25
2022-11-05T07:05:55.645Z,1010.24
2022-11-05T07:06:55.652Z,1010.23
2022-11-05T07:07:55.644Z,1010.25
2022-11-05T07:08:55.643Z,1010.29
2022-11-05T07:09:55.661Z,1010.22
2022-11-05T07:10:55.638Z,1010.25
2022-11-05T07:11:55.638Z,1010.24
2022-11-05T07:12:55.634Z,1010.28
2022-11-05T07:13:55.636Z,1010.29
2022-11-05T07:14:55.632Z,1010.31
2022-11-05T07:15:55.640Z,1010.31
2022-11-05T07:16:55.630Z,1010.33
2022-11-05T07:17:55.630Z,1010.34
2022-11-05T07:18:55.629Z,1010.32
2022-11-05T07:19:55.630Z,1010.33
2022-11-05T07:20:55.628Z,1010.33
2022-11-05T07:21:55.624Z,1010.33
2022-11-05T07:22:55.625Z,1010.34
2022-11-05T07:23:55.623Z,1010.39
2022-11-05T07:24:55.623Z,1010.40
2022-11-05T07:25:55.642Z,1010.41
2022-11-05T07:26:55.613Z,1010.42
2022-11-05T07:27:55.616Z,1010.39
2022-11-05T07:28:55.613Z,1010.37
2022-11-05T07:29:55.614Z,1010.41
2022-11-05T07:30:55.617Z,1010.39
2022-11-05T07:31:55.609Z,1010.42
2022-11-05T07:32:55.614Z,1010.40
2022-11-05T07:33:55.610Z,1010.42
2022-11-05T07:34:55.611Z,1010.47
2022-11-05T07:35:55.603Z,1010.47
2022-11-05T07:36:55.601Z,1010.46
2022-11-05T07:37:55.598Z,1010.50
2022-11-05T07:39:00.120Z,1010.51
2022-11-05T07:39:55.598Z,1010.54
2022-11-05T07:40:55.597Z,1010.57
2022-11-05T07:41:55.617Z,1010.59
2022-11-05T07:42:55.597Z,1010.64
2022-11-05T07:43:55.593Z,1010.68
2022-11-05T07:44:55.594Z,1010.66
2022-11-05T07:45:55.591Z,1010.66
2022-11-05T07:46:55.588Z,1010.69
2022-11-05T07:47:55.591Z,1010.68
2022-11-05T07:48:55.587Z,1010.68
2022-11-05T07:49:55.584Z,1010.73
2022-11-05T07:50:55.582Z,1010.70
2022-11-05T07:51:55.586Z,1010.67
2022-11-05T07:52:55.582Z,1010.66
2022-11-05T07:53:55.575Z,1010.69
2022-11-05T07:54:55.576Z,1010.69
2022-11-05T07:55:55.579Z,1010.70
2022-11-05T07:56:55.572Z,1010.77
2022-11-05T07:57:55.596Z,1010.77
2022-11-05T07:58:55.574Z,1010.80
2022-11-05T07:59:55.576Z,1010.81
2022-11-05T08:00:55.694Z,1010.82
2022-11-05T08:01:55.749Z,1010.83
2022-11-05T08:02:55.699Z,1010.86
2022-11-05T08:03:55.569Z,1010.79
2022-11-05T08:04:55.568Z,1010.79
2022-11-05T08:05:55.562Z,1010.79
2022-11-05T08:06:55.567Z,1010.80
2022-11-05T08:07:55.565Z,1010.78
2022-11-05T08:08:55.936Z,1010.85
2022-11-05T08:09:55.562Z,1010.87
2022-11-05T08:10:55.559Z,1010.87
2022-11-05T08:12:01.421Z,1010.92
2022-11-05T08:12:55.557Z,1010.91
2022-11-05T08:13:55.574Z,1010.93
2022-11-05T08:14:55.553Z,1010.94
2022-11-05T08:15:55.552Z,1010.97
2022-11-05T08:16:55.548Z,1011.01
2022-11-05T08:17:55.549Z,1011.02
2022-11-05T08:18:55.556Z,1011.10
2022-11-05T08:19:55.550Z,1011.16
2022-11-05T08:20:55.547Z,1011.19
2022-11-05T08:21:55.550Z,1011.26
2022-11-05T08:22:55.543Z,1011.30
2022-11-05T08:23:55.545Z,1011.32
2022-11-05T08:24:55.547Z,1011.31
2022-11-05T08:25:55.545Z,1011.31
2022-11-05T08:26:55.545Z,1011.28
2022-11-05T08:27:55.542Z,1011.37
2022-11-05T08:28:55.545Z,1011.33
2022-11-05T08:29:55.568Z,1011.32
2022-11-05T08:30:55.537Z,1011.29
2022-11-05T08:31:55.539Z,1011.32
2022-11-05T08:32:55.545Z,1011.34
2022-11-05T08:34:01.267Z,1011.35
2022-11-05T08:34:55.538Z,1011.37
2022-11-05T08:35:55.540Z,1011.42
2022-11-05T08:36:55.535Z,1011.43
2022-11-05T08:37:55.531Z,1011.49
2022-11-05T08:38:55.536Z,1011.48
2022-11-05T08:39:55.543Z,1011.43
2022-11-05T08:40:55.533Z,1011.51
2022-11-05T08:41:55.533Z,1011.54
2022-11-05T08:42:55.531Z,1011.51
2022-11-05T08:43:55.533Z,1011.55
2022-11-05T08:44:55.532Z,1011.56
2022-11-05T08:45:55.557Z,1011.50
2022-11-05T08:46:55.533Z,1011.52
2022-11-05T08:47:55.539Z,1011.53
2022-11-05T08:48:55.534Z,1011.46
2022-11-05T08:49:55.533Z,1011.46
2022-11-05T08:50:55.529Z,1011.44
2022-11-05T08:51:55.532Z,1011.46
2022-11-05T08:52:55.529Z,1011.43
2022-11-05T08:53:55.529Z,1011.43
2022-11-05T08:54:55.529Z,1011.45
2022-11-05T08:55:55.531Z,1011.45
2022-11-05T08:56:55.533Z,1011.49
2022-11-05T08:57:55.528Z,1011.44
2022-11-05T08:58:55.530Z,1011.47
2022-11-05T08:59:55.528Z,1011.46
2022-11-05T09:00:59.032Z,1011.52
2022-11-05T09:01:55.701Z,1011.51
2022-11-05T09:02:55.525Z,1011.54
2022-11-05T09:03:55.531Z,1011.57
2022-11-05T09:04:55.530Z,1011.57
2022-11-05T09:05:55.526Z,1011.60
2022-11-05T09:06:55.529Z,1011.59
2022-11-05T09:08:00.796Z,1011.66
2022-11-05T09:08:55.579Z,1011.68
2022-11-05T09:09:55.527Z,1011.71
2022-11-05T09:10:55.536Z,1011.70
2022-11-05T09:12:11.736Z,1011.68
2022-11-05T09:12:55.525Z,1011.72
2022-11-05T09:13:55.530Z,1011.72
2022-11-05T09:14:55.523Z,1011.75
2022-11-05T09:15:55.527Z,1011.75
2022-11-05T09:16:55.536Z,1011.79
2022-11-05T09:17:55.542Z,1011.79
2022-11-05T09:18:55.523Z,1011.82
2022-11-05T09:19:55.526Z,1011.80
2022-11-05T09:20:55.520Z,1011.84
2022-11-05T09:21:55.523Z,1011.85
2022-11-05T09:22:55.525Z,1011.83
2022-11-05T09:23:55.522Z,1011.85
2022-11-05T09:24:55.527Z,1011.90
2022-11-05T09:25:55.519Z,1011.91
2022-11-05T09:26:55.522Z,1011.93
2022-11-05T09:27:55.524Z,1011.95
2022-11-05T09:28:55.523Z,1011.99
2022-11-05T09:29:55.521Z,1011.96
2022-11-05T09:30:55.526Z,1011.96
2022-11-05T09:31:55.523Z,1012.00
2022-11-05T09:32:55.524Z,1012.05
2022-11-05T09:33:55.641Z,1012.05
2022-11-05T09:34:55.521Z,1012.01
2022-11-05T09:35:55.524Z,1012.05
2022-11-05T09:36:55.519Z,1012.06
2022-11-05T09:38:00.669Z,1012.02
2022-11-05T09:38:55.519Z,1012.05
2022-11-05T09:39:55.523Z,1012.05
2022-11-05T09:40:55.530Z,1012.08
2022-11-05T09:41:55.526Z,1012.13
2022-11-05T09:42:55.519Z,1012.13
2022-11-05T09:43:55.525Z,1012.13
2022-11-05T09:44:55.519Z,1012.10
2022-11-05T09:45:55.520Z,1012.08
2022-11-05T09:46:55.531Z,1012.12
2022-11-05T09:47:55.544Z,1012.11
2022-11-05T09:48:55.531Z,1012.16
2022-11-05T09:49:55.546Z,1012.19
2022-11-05T09:50:55.524Z,1012.36
2022-11-05T09:51:55.528Z,1012.50
2022-11-05T09:52:55.532Z,1012.67
2022-11-05T09:53:55.524Z,1012.72
2022-11-05T09:54:55.526Z,1012.73
2022-11-05T09:55:55.523Z,1012.73
2022-11-05T09:56:55.526Z,1012.76
2022-11-05T09:57:55.534Z,1012.78
2022-11-05T09:58:55.530Z,1012.78
2022-11-05T09:59:55.522Z,1012.77
2022-11-05T10:00:55.621Z,1012.79
2022-11-05T10:01:55.755Z,1012.78
2022-11-05T10:02:55.529Z,1012.60
2022-11-05T10:03:55.534Z,1012.51
2022-11-05T10:04:55.570Z,1012.45
2022-11-05T10:05:55.739Z,1012.44
2022-11-05T10:06:55.538Z,1012.45
2022-11-05T10:07:55.535Z,1012.50
2022-11-05T10:08:55.537Z,1012.48
2022-11-05T10:09:55.538Z,1012.47
2022-11-05T10:10:55.544Z,1012.46
2022-11-05T10:11:55.538Z,1012.42
2022-11-05T10:12:55.550Z,1012.45
2022-11-05T10:13:55.590Z,1012.38
2022-11-05T10:14:55.541Z,1012.43
2022-11-05T10:15:55.547Z,1012.49
2022-11-05T10:16:55.553Z,1012.69
2022-11-05T10:17:55.547Z,1012.82
2022-11-05T10:18:55.550Z,1012.76
2022-11-05T10:19:55.555Z,1012.54
2022-11-05T10:20:55.558Z,1012.49
2022-11-05T10:22:10.946Z,1012.48
2022-11-05T10:22:55.554Z,1012.50
2022-11-05T10:23:55.558Z,1012.47
2022-11-05T10:24:55.565Z,1012.68
2022-11-05T10:25:55.562Z,1012.85
2022-11-05T10:26:55.566Z,1012.69
2022-11-05T10:27:55.565Z,1012.53
2022-11-05T10:28:55.569Z,1012.49
2022-11-05T10:29:55.571Z,1012.47
2022-11-05T10:30:55.578Z,1012.57
2022-11-05T10:31:55.574Z,1012.57
2022-11-05T10:32:55.574Z,1012.59
2022-11-05T10:33:55.587Z,1012.60
2022-11-05T10:34:55.581Z,1012.69
2022-11-05T10:35:55.591Z,1012.91
2022-11-05T10:36:55.611Z,1013.15
2022-11-05T10:37:55.614Z,1013.21
2022-11-05T10:38:55.593Z,1013.27
2022-11-05T10:39:55.600Z,1013.30
2022-11-05T10:40:55.607Z,1013.35
2022-11-05T10:41:55.607Z,1013.36
2022-11-05T10:42:55.606Z,1013.40
2022-11-05T10:43:55.617Z,1013.36
2022-11-05T10:44:55.617Z,1013.43
2022-11-05T10:45:55.625Z,1013.39
2022-11-05T10:46:55.628Z,1013.41
2022-11-05T10:47:55.640Z,1013.35
2022-11-05T10:48:55.646Z,1013.47
2022-11-05T10:49:55.648Z,1013.47
2022-11-05T10:50:55.653Z,1013.48
2022-11-05T10:51:55.651Z,1013.46
2022-11-05T10:52:55.669Z,1013.48
2022-11-05T10:54:01.380Z,1013.53
2022-11-05T10:54:55.678Z,1013.56
2022-11-05T10:55:55.683Z,1013.52
2022-11-05T10:56:55.695Z,1013.57
2022-11-05T10:57:55.696Z,1013.59
2022-11-05T10:58:55.708Z,1013.59
2022-11-05T10:59:55.716Z,1013.56
2022-11-05T11:00:55.848Z,1013.56
2022-11-05T11:01:55.935Z,1013.54
2022-11-05T11:02:55.733Z,1013.54
2022-11-05T11:03:55.746Z,1013.58
2022-11-05T11:04:55.756Z,1013.57
2022-11-05T11:05:55.763Z,1013.55
2022-11-05T11:06:55.766Z,1013.53
2022-11-05T11:07:55.785Z,1012.72
2022-11-05T11:08:55.795Z,1013.51
2022-11-05T11:09:55.917Z,1013.53
2022-11-05T11:10:55.812Z,1013.54
2022-11-05T11:11:55.820Z,1013.48
2022-11-05T11:12:55.831Z,1013.51
2022-11-05T11:13:55.844Z,1013.50
2022-11-05T11:14:55.857Z,1013.57
2022-11-05T11:15:55.862Z,1013.53
2022-11-05T11:16:55.875Z,1013.52
2022-11-05T11:17:55.887Z,1013.53
2022-11-05T11:18:55.895Z,1013.48
2022-11-05T11:19:55.918Z,1013.48
2022-11-05T11:20:55.919Z,1013.46
2022-11-05T11:21:55.929Z,1013.47
2022-11-05T11:22:55.940Z,1013.49
2022-11-05T11:23:55.958Z,1013.49
2022-11-05T11:24:55.968Z,1013.53
2022-11-05T11:25:56.000Z,1013.52
2022-11-05T11:26:55.996Z,1013.55
2022-11-05T11:27:56.002Z,1013.49
2022-11-05T11:28:56.018Z,1013.48
2022-11-05T11:29:56.028Z,1013.52
2022-11-05T11:30:56.046Z,1013.56
2022-11-05T11:31:56.054Z,1013.54
2022-11-05T11:32:56.071Z,1013.52
2022-11-05T11:33:56.075Z,1013.57
2022-11-05T11:34:56.093Z,1013.57
2022-11-05T11:35:56.115Z,1013.64
2022-11-05T11:36:56.119Z,1013.63
2022-11-05T11:37:56.128Z,1013.60
2022-11-05T11:38:56.148Z,1013.58
2022-11-05T11:39:56.213Z,1013.56
2022-11-05T11:40:56.185Z,1013.47
2022-11-05T11:41:56.213Z,1013.60
2022-11-05T11:42:56.198Z,1013.59
2022-11-05T11:43:56.215Z,1013.58
2022-11-05T11:44:56.224Z,1013.59
2022-11-05T11:46:00.691Z,1013.09
2022-11-05T11:46:56.253Z,1012.80
2022-11-05T11:47:56.264Z,1013.58
2022-11-05T11:48:56.283Z,1013.59
2022-11-05T11:49:56.294Z,1013.51
2022-11-05T11:50:56.310Z,1013.51
2022-11-05T11:51:56.321Z,1013.47
2022-11-05T11:52:56.334Z,1013.45
2022-11-05T11:53:56.351Z,1013.36
2022-11-05T11:54:56.364Z,1013.24
2022-11-05T11:55:56.380Z,1013.19
2022-11-05T11:56:56.391Z,1013.10
2022-11-05T11:57:56.425Z,1012.96
2022-11-05T11:58:56.419Z,1012.98
2022-11-05T12:00:11.818Z,1012.93
2022-11-05T12:00:56.443Z,1012.99
2022-11-05T12:01:56.617Z,1012.95
2022-11-05T12:03:01.620Z,1012.93
2022-11-05T12:03:56.480Z,1012.91
2022-11-05T12:04:56.495Z,1012.92
2022-11-05T12:05:56.504Z,1012.91
2022-11-05T12:06:56.515Z,1012.89
2022-11-05T12:07:56.527Z,1012.89